Time;durP1;ratioP1;P1;durP2;ratioP2;P2;SDS_P1;SDS_P2;PMS_P1;PMS_P2;Temp;Humidity;BMP_temperature;BMP_pressure;BME280_temperature;BME280_humidity;BME280_pressure;Samples;Min_cycle;Max_cycle;Signal;HPM_P1;HPM_P2
2021/07/01 00:01:34;;;;;;;3.15;2.00;;;21.30;65.00;;;;;;5034301;28;20104;-44
2021/07/01 00:04:00;;;;;;;4.07;2.00;;;21.30;65.00;;;;;;5034374;28;20049;-45
2021/07/01 00:06:26;;;;;;;4.43;2.10;;;;;;;;;;5034970;28;20163;-44
2021/07/01 00:08:52;;;;;;;4.88;2.17;;;21.30;64.50;;;;;;5034818;28;20021;-45
2021/07/01 00:11:17;;;;;;;4.55;2.22;;;21.30;65.00;;;;;;5034568;28;20369;-44
2021/07/01 00:13:43;;;;;;;3.08;1.90;;;21.30;65.00;;;;;;5034441;28;20029;-45
2021/07/01 00:16:08;;;;;;;4.22;2.35;;;21.30;65.00;;;;;;5034724;28;20018;-43
2021/07/01 00:18:34;;;;;;;6.07;2.50;;;21.30;65.00;;;;;;5033493;28;20060;-45
2021/07/01 00:21:00;;;;;;;3.92;1.95;;;21.30;65.00;;;;;;5034551;28;20079;-43
2021/07/01 00:23:25;;;;;;;3.08;2.00;;;21.30;65.00;;;;;;5034484;28;20029;-44
2021/07/01 00:25:51;;;;;;;3.92;2.03;;;21.20;65.00;;;;;;5034423;28;20443;-44
2021/07/01 00:28:16;;;;;;;3.88;2.08;;;21.20;65.00;;;;;;5034407;28;20021;-44
2021/07/01 00:30:42;;;;;;;3.83;1.90;;;21.20;65.00;;;;;;5034347;28;20032;-44
2021/07/01 00:33:08;;;;;;;4.25;2.58;;;21.20;65.00;;;;;;5034328;28;20014;-44
2021/07/01 00:35:34;;;;;;;2.70;1.77;;;21.20;65.00;;;;;;5033994;28;20052;-44
2021/07/01 00:37:59;;;;;;;3.88;2.10;;;21.20;64.90;;;;;;5034224;28;20026;-44
2021/07/01 00:40:25;;;;;;;3.53;1.90;;;21.20;64.90;;;;;;5034294;28;20017;-44
2021/07/01 00:42:51;;;;;;;2.47;1.75;;;22.30;65.60;;;;;;5033814;28;20033;-44
2021/07/01 00:45:16;;;;;;;3.70;1.92;;;21.20;64.90;;;;;;5034353;28;20041;-44
2021/07/01 00:47:42;;;;;;;3.40;2.00;;;21.20;64.90;;;;;;5032695;28;20032;-43
2021/07/01 00:50:11;;;;;;;2.83;1.88;;;21.10;64.90;;;;;;5032405;28;20037;-44
2021/07/01 00:52:39;;;;;;;2.80;1.90;;;21.20;64.90;;;;;;5033635;28;20018;-44
2021/07/01 00:55:09;;;;;;;2.70;1.70;;;21.20;64.90;;;;;;5033967;28;20072;-45
2021/07/01 00:57:35;;;;;;;5.55;2.22;;;21.20;64.90;;;;;;5032721;28;20071;-44
2021/07/01 01:00:05;;;;;;;3.15;2.30;;;21.20;64.90;;;;;;5033825;28;20057;-44
2021/07/01 01:02:31;;;;;;;4.53;2.40;;;21.20;64.90;;;;;;5033787;28;20048;-43
2021/07/01 01:04:56;;;;;;;4.28;2.30;;;21.20;64.90;;;;;;5033290;28;20568;-43
2021/07/01 01:07:22;;;;;;;6.05;2.13;;;;;;;;;;5033714;28;20487;-44
2021/07/01 01:09:48;;;;;;;3.20;2.10;;;21.20;64.30;;;;;;5033340;28;20033;-44
2021/07/01 01:12:13;;;;;;;3.58;2.03;;;21.20;64.90;;;;;;5033400;28;20025;-44
2021/07/01 01:14:39;;;;;;;3.70;2.10;;;21.10;64.90;;;;;;5033299;28;20511;-44
2021/07/01 01:17:05;;;;;;;3.78;2.35;;;21.00;64.80;;;;;;5033577;28;20029;-44
2021/07/01 01:19:30;;;;;;;4.05;2.35;;;21.20;64.90;;;;;;5033792;28;20022;-44
2021/07/01 01:21:56;;;;;;;3.78;2.50;;;21.20;64.90;;;;;;5033396;28;20021;-44
2021/07/01 01:24:22;;;;;;;2.90;1.90;;;21.20;64.80;;;;;;5033369;28;20022;-44
2021/07/01 01:26:47;;;;;;;2.22;1.80;;;21.20;64.80;;;;;;5033004;28;20473;-44
2021/07/01 01:29:13;;;;;;;4.07;2.00;;;21.10;64.80;;;;;;5033090;28;20025;-44
2021/07/01 01:31:38;;;;;;;4.20;2.55;;;21.20;64.80;;;;;;5033006;28;20052;-43
2021/07/01 01:34:05;;;;;;;3.55;1.90;;;21.20;64.70;;;;;;5033201;28;20037;-44
2021/07/01 01:36:31;;;;;;;3.35;1.92;;;21.30;64.80;;;;;;5031716;28;20494;-43
2021/07/01 01:38:56;;;;;;;3.97;2.25;;;21.10;65.40;;;;;;5032930;28;20053;-44
2021/07/01 01:41:26;;;;;;;3.42;1.90;;;21.10;64.70;;;;;;5033178;28;20036;-44
2021/07/01 01:43:52;;;;;;;3.13;1.80;;;21.10;64.70;;;;;;5033135;28;20136;-44
2021/07/01 01:46:18;;;;;;;3.33;2.15;;;21.10;64.70;;;;;;5033014;28;20048;-44
2021/07/01 01:48:52;;;;;;;3.08;2.20;;;21.20;64.70;;;;;;5033133;28;20492;-44
2021/07/01 01:51:18;;;;;;;3.55;1.67;;;21.10;64.70;;;;;;5032981;28;20353;-44
2021/07/01 01:53:44;;;;;;;3.58;1.88;;;21.20;64.70;;;;;;5032725;28;20514;-44
2021/07/01 01:56:09;;;;;;;6.88;2.35;;;21.10;64.60;;;;;;5032950;28;20029;-44
2021/07/01 01:58:35;;;;;;;3.97;2.10;;;21.10;64.70;;;;;;5032717;28;20025;-44
2021/07/01 02:01:01;;;;;;;2.90;2.08;;;21.10;64.60;;;;;;5032697;28;20026;-44
2021/07/01 02:03:26;;;;;;;4.20;2.10;;;21.10;64.60;;;;;;5032977;28;20026;-44
2021/07/01 02:05:52;;;;;;;3.78;1.80;;;20.90;64.50;;;;;;5032789;28;20048;-44
2021/07/01 02:08:17;;;;;;;4.30;2.25;;;21.10;64.60;;;;;;5032938;28;20049;-44
2021/07/01 02:10:43;;;;;;;3.85;2.17;;;21.20;64.60;;;;;;5032899;28;20435;-45
2021/07/01 02:13:10;;;;;;;4.53;2.20;;;21.30;64.70;;;;;;5032866;28;20472;-44
2021/07/01 02:15:36;;;;;;;4.63;2.10;;;21.10;64.50;;;;;;5032831;28;20103;-44
2021/07/01 02:18:01;;;;;;;4.50;1.92;;;21.10;64.80;;;;;;5032804;28;20077;-43
2021/07/01 02:20:28;;;;;;;3.30;2.13;;;21.10;64.60;;;;;;5032901;28;20079;-44
2021/07/01 02:22:54;;;;;;;3.00;2.08;;;21.10;64.50;;;;;;5032787;28;20508;-44
2021/07/01 02:25:20;;;;;;;2.85;1.90;;;20.90;64.40;;;;;;5036765;28;20034;-44
2021/07/01 02:27:46;;;;;;;5.05;1.92;;;21.10;64.50;;;;;;5036590;28;20022;-44
2021/07/01 02:30:15;;;;;;;5.88;2.30;;;21.00;64.50;;;;;;5036832;28;20133;-43
2021/07/01 02:32:40;;;;;;;3.25;2.35;;;21.10;64.50;;;;;;5036710;28;20533;-43
2021/07/01 02:35:08;;;;;;;2.15;1.67;;;21.00;64.40;;;;;;5036639;28;20037;-43
2021/07/01 02:37:34;;;;;;;4.93;2.13;;;21.00;64.40;;;;;;5036274;28;20368;-44
2021/07/01 02:40:00;;;;;;;2.85;2.20;;;20.80;64.30;;;;;;5035051;28;20546;-44
2021/07/01 02:42:26;;;;;;;3.63;1.67;;;21.10;64.40;;;;;;5036192;28;20033;-43
2021/07/01 02:44:51;;;;;;;3.90;1.80;;;21.00;64.40;;;;;;5036333;28;20116;-44
2021/07/01 02:47:17;;;;;;;2.20;1.80;;;20.90;64.30;;;;;;5036171;28;20103;-44
2021/07/01 02:49:42;;;;;;;2.75;1.90;;;21.00;64.40;;;;;;5036440;28;20021;-43
2021/07/01 02:52:08;;;;;;;2.85;1.67;;;21.00;64.40;;;;;;5036086;28;20017;-44
2021/07/01 02:54:33;;;;;;;3.40;1.98;;;20.80;64.20;;;;;;5036268;28;20017;-44
2021/07/01 02:57:01;;;;;;;2.20;1.80;;;21.00;64.40;;;;;;5036246;28;20557;-44
2021/07/01 02:59:27;;;;;;;3.80;1.90;;;21.00;64.40;;;;;;5036481;28;20025;-44
2021/07/01 03:01:53;;;;;;;2.38;1.48;;;20.80;64.20;;;;;;5036142;28;20076;-43
2021/07/01 03:04:18;;;;;;;4.03;1.75;;;21.00;64.40;;;;;;5035822;28;20545;-44
2021/07/01 03:06:44;;;;;;;2.25;1.88;;;21.00;64.40;;;;;;5035751;28;20021;-45
2021/07/01 03:09:11;;;;;;;4.13;2.13;;;21.00;64.30;;;;;;5035790;28;20021;-44
2021/07/01 03:11:38;;;;;;;2.83;1.70;;;20.90;64.30;;;;;;5035734;28;20025;-43
2021/07/01 03:14:04;;;;;;;2.22;1.90;;;21.00;64.30;;;;;;5035980;28;20029;-44
2021/07/01 03:16:31;;;;;;;3.90;1.85;;;21.40;64.60;;;;;;5035672;28;20023;-43
2021/07/01 03:18:56;;;;;;;3.42;1.90;;;21.00;64.30;;;;;;5035634;28;20057;-44
2021/07/01 03:21:22;;;;;;;3.05;1.98;;;21.20;64.40;;;;;;5035502;28;20060;-45
2021/07/01 03:23:48;;;;;;;3.45;1.70;;;20.90;64.30;;;;;;5035504;28;20026;-43
2021/07/01 03:26:15;;;;;;;3.00;2.10;;;21.00;64.40;;;;;;5035784;28;20104;-43
2021/07/01 03:28:42;;;;;;;3.58;1.73;;;20.90;64.30;;;;;;5035734;28;20387;-44
2021/07/01 03:31:08;;;;;;;3.75;1.85;;;21.00;64.30;;;;;;5034224;28;20025;-43
2021/07/01 03:33:34;;;;;;;4.43;2.05;;;21.00;64.30;;;;;;5035654;28;20419;-43
2021/07/01 03:36:00;;;;;;;3.03;1.80;;;21.00;64.30;;;;;;5035311;28;20064;-45
2021/07/01 03:38:26;;;;;;;3.63;2.22;;;21.00;64.30;;;;;;5035559;28;20483;-45
2021/07/01 03:40:52;;;;;;;3.78;1.90;;;20.90;64.30;;;;;;5035229;28;20101;-46
2021/07/01 03:43:18;;;;;;;2.35;1.60;;;20.90;64.30;;;;;;5035122;28;20040;-46
2021/07/01 03:45:44;;;;;;;2.80;1.90;;;21.00;64.30;;;;;;5035329;28;20037;-45
2021/07/01 03:48:10;;;;;;;2.90;1.83;;;21.00;64.20;;;;;;5035442;28;20484;-47
2021/07/01 03:50:36;;;;;;;2.35;1.73;;;21.00;64.20;;;;;;5035372;28;20049;-45
2021/07/01 03:53:02;;;;;;;2.75;1.73;;;21.00;64.20;;;;;;5034878;28;20095;-46
2021/07/01 03:55:27;;;;;;;2.00;1.63;;;21.00;64.20;;;;;;5034915;28;20017;-45
2021/07/01 03:57:53;;;;;;;4.85;1.85;;;20.80;64.10;;;;;;5034974;28;20053;-44
2021/07/01 04:00:18;;;;;;;2.97;1.90;;;20.80;64.10;;;;;;5035093;28;20033;-44
2021/07/01 04:02:44;;;;;;;2.60;2.00;;;20.60;64.00;;;;;;5034938;28;20345;-44
2021/07/01 04:05:10;;;;;;;3.85;1.88;;;20.90;64.20;;;;;;5033144;28;20485;-44
2021/07/01 04:07:36;;;;;;;4.20;1.83;;;21.00;64.20;;;;;;5034772;28;20021;-47
2021/07/01 04:10:07;;;;;;;3.42;2.08;;;20.90;64.10;;;;;;5035009;28;20034;-45
2021/07/01 04:12:35;;;;;;;2.83;1.80;;;20.90;64.20;;;;;;5034939;28;20067;-44
2021/07/01 04:15:02;;;;;;;3.50;2.00;;;20.90;64.20;;;;;;5034676;28;20076;-44
2021/07/01 04:17:28;;;;;;;2.85;1.85;;;20.70;64.10;;;;;;5034609;28;20037;-45
2021/07/01 04:19:53;;;;;;;3.25;1.88;;;20.90;64.20;;;;;;5034541;28;20132;-44
2021/07/01 04:22:19;;;;;;;2.97;1.80;;;20.90;64.20;;;;;;5034905;28;20032;-44
2021/07/01 04:24:45;;;;;;;2.00;1.73;;;20.90;64.20;;;;;;5034357;28;20488;-44
2021/07/01 04:27:10;;;;;;;1.90;1.50;;;20.80;64.10;;;;;;5034836;28;20155;-44
2021/07/01 04:29:36;;;;;;;2.15;1.58;;;20.90;64.20;;;;;;5034509;28;20388;-44
2021/07/01 04:32:02;;;;;;;2.97;1.70;;;20.90;64.20;;;;;;5034127;28;20109;-44
2021/07/01 04:34:27;;;;;;;5.32;1.98;;;20.90;64.10;;;;;;5034360;28;20026;-44
2021/07/01 04:36:53;;;;;;;3.15;1.40;;;20.90;64.80;;;;;;5034303;28;20160;-44
2021/07/01 04:39:19;;;;;;;2.60;1.52;;;20.90;64.10;;;;;;5034323;28;20027;-44
2021/07/01 04:41:45;;;;;;;2.13;1.63;;;20.90;64.10;;;;;;5034000;28;20031;-44
2021/07/01 04:44:10;;;;;;;2.47;1.63;;;20.90;64.10;;;;;;5033780;28;20040;-44
2021/07/01 04:46:36;;;;;;;2.33;1.20;;;20.90;64.20;;;;;;5033361;28;20036;-44
2021/07/01 04:49:02;;;;;;;4.50;2.22;;;20.70;64.10;;;;;;5033836;28;20451;-44
2021/07/01 04:51:27;;;;;;;2.50;1.27;;;20.90;64.20;;;;;;5033970;28;20064;-44
2021/07/01 04:53:53;;;;;;;2.67;1.45;;;20.90;64.20;;;;;;5034037;28;20022;-44
2021/07/01 04:56:19;;;;;;;3.38;2.03;;;20.90;64.20;;;;;;5032512;28;20034;-44
2021/07/01 04:58:45;;;;;;;4.32;2.38;;;20.90;64.20;;;;;;5033712;28;20052;-45
2021/07/01 05:01:11;;;;;;;2.88;1.60;;;20.90;64.10;;;;;;5033909;28;20112;-44
2021/07/01 05:03:37;;;;;;;2.42;1.55;;;20.90;64.10;;;;;;5033377;28;20384;-44
2021/07/01 05:06:03;;;;;;;3.40;1.80;;;20.90;64.10;;;;;;5033419;28;20037;-44
2021/07/01 05:08:28;;;;;;;5.15;1.98;;;20.90;64.10;;;;;;5033522;28;20037;-44
2021/07/01 05:10:54;;;;;;;3.17;1.55;;;20.90;64.00;;;;;;5033662;28;20024;-45
2021/07/01 05:13:20;;;;;;;2.90;1.58;;;20.90;64.00;;;;;;5033650;28;20338;-45
2021/07/01 05:15:45;;;;;;;3.22;1.52;;;20.90;64.10;;;;;;5033431;28;20362;-51
2021/07/01 05:18:11;;;;;;;2.05;1.75;;;20.90;64.00;;;;;;5032010;28;20017;-44
2021/07/01 05:20:37;;;;;;;5.25;1.70;;;20.80;64.10;;;;;;5033248;28;20038;-46
2021/07/01 05:23:03;;;;;;;2.40;1.95;;;20.80;64.10;;;;;;5033240;28;20022;-44
2021/07/01 05:25:28;;;;;;;2.08;1.80;;;20.90;64.20;;;;;;5033398;28;20049;-44
2021/07/01 05:27:54;;;;;;;2.67;1.63;;;20.90;64.20;;;;;;5033462;28;20017;-44
2021/07/01 05:30:20;;;;;;;2.22;1.60;;;20.90;64.20;;;;;;5033371;28;20037;-44
2021/07/01 05:32:45;;;;;;;3.78;1.67;;;20.90;64.20;;;;;;5033358;28;20469;-44
2021/07/01 05:35:11;;;;;;;3.25;1.80;;;20.90;64.20;;;;;;5032076;28;20072;-44
2021/07/01 05:37:37;;;;;;;2.42;1.83;;;20.90;64.20;;;;;;5033190;28;20380;-44
2021/07/01 05:40:04;;;;;;;3.75;1.40;;;21.30;64.40;;;;;;5032987;28;20385;-44
2021/07/01 05:42:29;;;;;;;3.50;1.75;;;20.90;64.10;;;;;;5032814;28;20480;-44
2021/07/01 05:44:55;;;;;;;5.60;1.70;;;20.60;63.90;;;;;;5033113;28;20034;-44
2021/07/01 05:47:21;;;;;;;4.47;2.20;;;20.80;64.00;;;;;;5032971;28;20396;-44
2021/07/01 05:49:46;;;;;;;3.83;1.70;;;20.80;64.10;;;;;;5032823;28;20029;-45
2021/07/01 05:52:14;;;;;;;3.30;1.77;;;20.80;64.00;;;;;;5031449;28;20430;-44
2021/07/01 05:54:52;;;;;;;3.03;1.30;;;21.10;64.60;;;;;;5033055;28;20029;-44
2021/07/01 05:57:18;;;;;;;1.77;1.50;;;20.90;64.40;;;;;;5032498;28;20025;-44
2021/07/01 05:59:43;;;;;;;7.45;1.58;;;20.70;64.30;;;;;;5032529;28;20104;-44
2021/07/01 06:02:09;;;;;;;3.20;1.30;;;20.90;64.30;;;;;;5032908;28;20037;-44
2021/07/01 06:04:34;;;;;;;6.50;1.83;;;20.80;64.40;;;;;;5032549;28;20038;-45
2021/07/01 06:07:00;;;;;;;4.30;1.52;;;20.90;64.40;;;;;;5032964;28;20033;-45
2021/07/01 06:09:26;;;;;;;2.78;1.70;;;20.80;64.90;;;;;;5032934;28;20412;-45
2021/07/01 06:12:00;;;;;;;2.53;1.50;;;21.00;64.40;;;;;;5032532;28;20018;-44
2021/07/01 06:14:27;;;;;;;2.40;1.45;;;20.80;64.30;;;;;;5032891;28;20037;-45
2021/07/01 06:16:56;;;;;;;3.60;1.58;;;20.80;64.20;;;;;;5032785;28;20041;-46
2021/07/01 06:19:22;;;;;;;3.15;1.60;;;20.90;64.20;;;;;;5032817;28;20052;-44
2021/07/01 06:21:52;;;;;;;3.75;1.80;;;20.70;64.10;;;;;;5032511;28;20040;-42
2021/07/01 06:24:18;;;;;;;4.33;1.77;;;20.90;64.20;;;;;;5032793;28;20025;-42
2021/07/01 06:26:46;;;;;;;3.83;1.77;;;20.80;64.90;;;;;;5032795;28;20345;-42
2021/07/01 06:29:13;;;;;;;6.85;2.00;;;20.80;65.40;;;;;;5032338;28;20022;-42
2021/07/01 06:31:39;;;;;;;5.03;2.10;;;20.80;65.00;;;;;;5032653;28;20035;-42
2021/07/01 06:34:05;;;;;;;4.88;1.70;;;20.90;64.90;;;;;;5032658;28;20025;-42
2021/07/01 06:36:34;;;;;;;3.47;1.80;;;20.80;64.60;;;;;;5032689;28;20031;-43
2021/07/01 06:39:04;;;;;;;5.90;1.77;;;20.90;64.70;;;;;;5032743;28;20045;-43
2021/07/01 06:41:32;;;;;;;4.38;1.98;;;20.80;64.80;;;;;;5032593;28;20071;-42
2021/07/01 06:43:57;;;;;;;5.05;1.67;;;20.90;65.10;;;;;;5032619;28;20024;-43
2021/07/01 06:46:30;;;;;;;6.15;1.75;;;21.10;65.00;;;;;;5031370;28;20034;-43
2021/07/01 06:48:57;;;;;;;3.50;1.50;;;20.90;64.90;;;;;;5032644;28;20022;-42
2021/07/01 06:51:23;;;;;;;2.65;1.60;;;20.90;64.90;;;;;;5032527;28;20380;-42
2021/07/01 06:53:49;;;;;;;4.25;1.80;;;20.80;64.80;;;;;;5032475;28;20021;-43
2021/07/01 06:56:15;;;;;;;6.18;2.10;;;20.80;64.90;;;;;;5032461;28;20380;-42
2021/07/01 06:58:42;;;;;;;2.38;1.70;;;20.80;64.80;;;;;;5031354;28;20026;-43
2021/07/01 07:01:08;;;;;;;4.75;1.65;;;20.80;64.80;;;;;;5032334;28;20026;-42
2021/07/01 07:03:34;;;;;;;2.45;1.67;;;20.80;64.80;;;;;;5032219;28;20042;-43
2021/07/01 07:06:01;;;;;;;3.50;1.70;;;20.80;64.80;;;;;;5032200;28;20119;-43
2021/07/01 07:08:27;;;;;;;2.88;1.40;;;20.80;64.80;;;;;;5032471;28;20021;-42
2021/07/01 07:10:53;;;;;;;3.53;1.77;;;20.80;64.80;;;;;;5035412;28;20022;-42
2021/07/01 07:13:24;;;;;;;5.72;2.38;;;20.80;64.80;;;;;;5035525;28;20560;-43
2021/07/01 07:15:51;;;;;;;3.38;1.67;;;20.60;64.70;;;;;;5034514;28;20044;-43
2021/07/01 07:18:24;;;;;;;2.42;1.38;;;20.80;64.70;;;;;;5034403;28;20079;-42
2021/07/01 07:20:58;;;;;;;1.85;1.42;;;20.80;64.80;;;;;;5035979;28;20030;-43
2021/07/01 07:23:32;;;;;;;6.25;1.95;;;20.80;64.70;;;;;;5035754;28;20017;-43
2021/07/01 07:26:00;;;;;;;4.63;1.50;;;20.80;64.80;;;;;;5035387;28;20468;-43
2021/07/01 07:28:26;;;;;;;4.53;1.92;;;20.80;64.80;;;;;;5035770;28;20014;-43
2021/07/01 07:30:54;;;;;;;2.75;1.52;;;20.50;64.60;;;;;;5035934;28;20026;-42
2021/07/01 07:33:24;;;;;;;3.53;1.48;;;20.80;64.80;;;;;;5035558;28;20406;-43
2021/07/01 07:35:50;;;;;;;5.80;1.63;;;20.60;64.70;;;;;;5035685;28;20018;-43
2021/07/01 07:38:17;;;;;;;2.25;1.70;;;20.80;64.80;;;;;;5035363;28;20033;-43
2021/07/01 07:40:43;;;;;;;2.25;1.52;;;20.80;64.80;;;;;;5035319;28;20176;-43
2021/07/01 07:43:13;;;;;;;2.90;1.63;;;20.80;64.80;;;;;;5035244;28;20029;-43
2021/07/01 07:45:40;;;;;;;2.72;1.70;;;20.80;64.70;;;;;;5035374;28;20116;-42
2021/07/01 07:48:06;;;;;;;3.83;1.88;;;20.70;64.70;;;;;;5035325;28;20032;-42
2021/07/01 07:50:37;;;;;;;3.30;1.30;;;20.70;64.80;;;;;;5034950;28;20026;-43
2021/07/01 07:53:05;;;;;;;4.32;1.80;;;20.70;64.80;;;;;;5035321;28;20025;-42
2021/07/01 07:55:31;;;;;;;3.63;1.83;;;20.70;64.80;;;;;;5034148;28;20376;-43
2021/07/01 07:58:03;;;;;;;3.58;1.98;;;20.70;64.80;;;;;;5034860;28;20021;-42
2021/07/01 08:00:28;;;;;;;4.78;1.83;;;20.70;64.90;;;;;;5035010;28;20427;-42
2021/07/01 08:02:59;;;;;;;2.28;1.42;;;20.70;64.70;;;;;;5034640;28;20026;-43
2021/07/01 08:05:33;;;;;;;1.98;1.60;;;20.70;64.90;;;;;;5034677;28;20120;-42
2021/07/01 08:07:59;;;;;;;3.33;1.65;;;20.70;65.60;;;;;;5034877;28;20017;-42
2021/07/01 08:10:30;;;;;;;3.95;1.83;;;20.70;64.80;;;;;;5034904;28;20045;-43
2021/07/01 08:13:01;;;;;;;;;;;20.90;64.90;;;;;;5035467;28;20021;-43
2021/07/01 08:15:27;;;;;;;4.25;2.22;;;20.70;64.80;;;;;;5034990;28;19958;-42
2021/07/01 08:17:53;;;;;;;4.63;2.22;;;20.60;64.80;;;;;;5034624;28;20025;-42
2021/07/01 08:20:21;;;;;;;3.47;1.90;;;20.70;64.90;;;;;;5033932;28;20076;-43
2021/07/01 08:22:50;;;;;;;3.95;1.88;;;20.70;64.80;;;;;;5034567;28;20026;-43
2021/07/01 08:25:17;;;;;;;3.63;2.22;;;20.80;64.90;;;;;;5034419;28;20029;-42
2021/07/01 08:27:44;;;;;;;4.82;1.95;;;20.70;64.70;;;;;;5034249;28;20491;-42
2021/07/01 08:30:12;;;;;;;3.95;2.15;;;21.00;64.80;;;;;;5034216;28;20536;-43
2021/07/01 08:32:39;;;;;;;5.63;1.92;;;20.70;64.60;;;;;;5034224;28;20048;-42
2021/07/01 08:35:07;;;;;;;7.75;2.33;;;20.70;64.70;;;;;;5034047;28;20099;-43
2021/07/01 08:37:33;;;;;;;5.15;2.47;;;20.70;64.70;;;;;;5033796;28;20452;-43
2021/07/01 08:40:06;;;;;;;5.70;2.17;;;20.50;64.60;;;;;;5034254;28;20021;-43
2021/07/01 08:42:37;;;;;;;6.82;2.55;;;20.60;64.70;;;;;;5034340;28;20022;-42
2021/07/01 08:45:14;;;;;;;4.05;1.75;;;20.60;64.70;;;;;;5034206;28;20034;-42
2021/07/01 08:47:42;;;;;;;4.88;2.60;;;20.70;64.60;;;;;;5034219;28;20424;-42
2021/07/01 08:50:18;;;;;;;3.38;2.13;;;20.50;81.40;;;;;;5033909;28;20108;-42
2021/07/01 08:53:03;;;;;;;3.15;1.67;;;20.60;64.60;;;;;;5034060;28;20025;-42
2021/07/01 08:55:29;;;;;;;4.70;2.40;;;20.60;64.60;;;;;;5033874;28;20550;-42
2021/07/01 08:57:56;;;;;;;5.45;2.92;;;20.70;64.70;;;;;;5034117;28;20018;-42
2021/07/01 09:00:23;;;;;;;3.90;2.28;;;20.70;64.60;;;;;;5033664;28;20029;-42
2021/07/01 09:03:03;;;;;;;4.65;2.33;;;20.70;64.50;;;;;;5032383;28;20040;-43
2021/07/01 09:05:31;;;;;;;3.70;2.47;;;20.70;64.50;;;;;;5033274;28;20063;-42
2021/07/01 09:07:59;;;;;;;5.45;2.25;;;20.70;64.50;;;;;;5033628;28;20021;-42
2021/07/01 09:10:25;;;;;;;4.90;2.30;;;20.70;64.50;;;;;;5033897;28;20029;-43
2021/07/01 09:12:55;;;;;;;5.40;2.60;;;20.60;64.50;;;;;;5034032;28;20018;-43
2021/07/01 09:15:22;;;;;;;6.80;2.65;;;20.60;64.40;;;;;;5033638;28;20025;-42
2021/07/01 09:17:48;;;;;;;2.90;2.17;;;20.70;64.50;;;;;;5033659;28;20396;-42
2021/07/01 09:20:19;;;;;;;4.38;2.05;;;20.70;64.50;;;;;;5033554;28;20041;-42
2021/07/01 09:22:50;;;;;;;5.90;2.92;;;20.70;64.40;;;;;;5033176;28;20025;-43
2021/07/01 09:25:16;;;;;;;6.15;2.72;;;20.70;64.40;;;;;;5033179;28;20538;-42
2021/07/01 09:27:45;;;;;;;3.75;2.42;;;20.70;64.40;;;;;;5033446;28;20376;-42
2021/07/01 09:30:12;;;;;;;4.95;2.67;;;20.70;64.40;;;;;;5033187;28;20104;-43
2021/07/01 09:32:39;;;;;;;2.75;2.15;;;20.70;64.30;;;;;;5033316;28;20069;-42
2021/07/01 09:35:06;;;;;;;4.90;2.55;;;20.70;64.30;;;;;;5033371;28;20378;-42
2021/07/01 09:37:42;;;;;;;6.78;2.60;;;20.70;64.20;;;;;;5033125;28;20072;-42
2021/07/01 09:40:11;;;;;;;5.65;2.60;;;20.70;64.20;;;;;;5033390;28;20373;-42
2021/07/01 09:42:37;;;;;;;6.63;2.67;;;20.80;64.20;;;;;;5033364;28;20038;-43
2021/07/01 09:45:11;;;;;;;5.75;2.78;;;20.70;64.10;;;;;;5031565;28;20033;-42
2021/07/01 09:47:42;;;;;;;5.45;2.47;;;20.80;64.10;;;;;;5033016;28;20028;-42
2021/07/01 09:50:09;;;;;;;4.35;2.47;;;20.90;81.20;;;;;;5033047;28;20384;-43
2021/07/01 09:52:38;;;;;;;4.68;2.83;;;20.80;64.10;;;;;;5032889;28;20472;-43
2021/07/01 09:55:05;;;;;;;5.05;2.30;;;20.70;64.10;;;;;;5033154;28;20036;-42
2021/07/01 09:57:36;;;;;;;3.33;2.30;;;20.70;64.20;;;;;;5032929;28;20048;-43
2021/07/01 10:00:10;;;;;;;6.68;2.70;;;20.80;64.30;;;;;;5033043;28;20056;-42
2021/07/01 10:02:37;;;;;;;4.88;2.40;;;20.80;64.20;;;;;;5032810;28;20018;-42
2021/07/01 10:05:07;;;;;;;4.95;2.45;;;20.80;64.10;;;;;;5032553;28;20133;-43
2021/07/01 10:07:33;;;;;;;5.28;2.72;;;20.80;64.10;;;;;;5033019;28;20075;-42
2021/07/01 10:10:12;;;;;;;3.78;2.38;;;20.80;64.20;;;;;;5033050;28;20040;-42
2021/07/01 10:12:50;;;;;;;4.72;2.47;;;20.80;64.10;;;;;;5033052;28;20427;-42
2021/07/01 10:15:36;;;;;;;5.35;2.50;;;20.80;64.20;;;;;;5033044;28;20111;-42
2021/07/01 10:18:16;;;;;;;4.68;2.08;;;20.70;64.10;;;;;;5032835;28;20159;-43
2021/07/01 10:20:46;;;;;;;3.90;2.20;;;20.80;64.20;;;;;;5032838;28;20026;-43
2021/07/01 10:23:33;;;;;;;4.53;2.70;;;20.80;64.10;;;;;;5032876;28;20014;-42
2021/07/01 10:26:08;;;;;;;4.18;2.50;;;20.80;64.10;;;;;;5032442;28;20441;-42
2021/07/01 10:28:34;;;;;;;5.30;2.90;;;20.80;64.50;;;;;;5032719;28;20381;-43
2021/07/01 10:31:11;;;;;;;3.80;2.60;;;20.80;64.10;;;;;;5032498;28;20028;-42
2021/07/01 10:33:40;;;;;;;5.32;3.03;;;20.80;64.10;;;;;;5032579;28;20032;-42
2021/07/01 10:36:13;;;;;;;4.97;2.63;;;20.60;64.00;;;;;;5032689;28;20021;-42
2021/07/01 10:38:51;;;;;;;5.60;2.80;;;20.80;64.10;;;;;;5032753;28;20022;-42
2021/07/01 10:41:58;;;;;;;4.18;2.63;;;20.70;64.10;;;;;;5032739;28;20021;-43
2021/07/01 10:44:23;;;;;;;4.97;2.67;;;20.60;64.10;;;;;;5025760;28;20036;-43
2021/07/01 10:46:49;;;;;;;4.13;2.55;;;20.60;64.10;;;;;;5036459;28;20033;-43
2021/07/01 10:49:17;;;;;;;5.13;2.88;;;20.70;64.20;;;;;;5036548;28;20018;-43
2021/07/01 10:51:59;;;;;;;4.35;2.50;;;20.90;64.30;;;;;;5036394;28;20026;-42
2021/07/01 10:54:26;;;;;;;2.60;2.00;;;20.70;64.10;;;;;;5036421;28;20136;-43
2021/07/01 10:56:54;;;;;;;3.47;2.58;;;20.70;64.10;;;;;;5034875;28;20091;-43
2021/07/01 10:59:21;;;;;;;4.43;2.53;;;20.70;64.10;;;;;;5036342;28;20040;-44
2021/07/01 11:01:52;;;;;;;3.63;2.22;;;20.80;64.20;;;;;;5036048;28;20032;-44
2021/07/01 11:04:19;;;;;;;4.50;2.13;;;20.80;64.10;;;;;;5035596;28;20057;-43
2021/07/01 11:06:56;;;;;;;5.70;2.30;;;20.80;64.20;;;;;;5035615;28;20036;-42
2021/07/01 11:09:21;;;;;;;4.22;2.50;;;20.80;64.20;;;;;;5036051;28;20025;-43
2021/07/01 11:11:59;;;;;;;3.20;2.30;;;20.70;64.10;;;;;;5036104;28;20033;-42
2021/07/01 11:14:41;;;;;;;3.85;2.63;;;20.70;64.10;;;;;;5035901;28;20026;-43
2021/07/01 11:17:06;;;;;;;4.72;2.30;;;20.80;64.20;;;;;;5035675;28;20025;-43
2021/07/01 11:19:43;;;;;;;3.78;2.50;;;20.70;64.10;;;;;;5035611;28;20027;-43
2021/07/01 11:22:10;;;;;;;4.97;2.80;;;20.70;64.20;;;;;;5035955;28;20026;-43
2021/07/01 11:24:43;;;;;;;3.60;2.33;;;20.70;64.20;;;;;;5035408;28;20369;-43
2021/07/01 11:27:09;;;;;;;6.10;2.58;;;20.70;64.10;;;;;;5035512;28;20472;-43
2021/07/01 11:29:42;;;;;;;4.40;2.80;;;20.70;64.10;;;;;;5035700;28;20037;-43
2021/07/01 11:32:24;;;;;;;5.40;2.45;;;20.70;64.20;;;;;;5035254;28;20476;-43
2021/07/01 11:34:51;;;;;;;4.57;2.45;;;20.70;64.20;;;;;;5035544;28;20029;-43
2021/07/01 11:37:32;;;;;;;3.83;2.53;;;20.60;64.20;;;;;;5035196;28;20025;-44
2021/07/01 11:40:12;;;;;;;3.15;2.50;;;20.60;64.10;;;;;;5035461;28;20032;-42
2021/07/01 11:42:39;;;;;;;3.40;2.25;;;20.70;64.20;;;;;;5035250;28;20037;-43
2021/07/01 11:45:06;;;;;;;5.82;3.00;;;20.70;64.30;;;;;;5035418;28;20431;-43
2021/07/01 11:47:33;;;;;;;3.65;2.65;;;20.70;64.30;;;;;;5035269;28;20404;-42
2021/07/01 11:50:02;;;;;;;5.07;2.63;;;20.70;81.50;;;;;;5035089;28;20029;-43
2021/07/01 11:52:31;;;;;;;3.38;2.55;;;20.70;64.30;;;;;;5035229;28;20045;-42
2021/07/01 11:55:01;;;;;;;7.32;3.20;;;20.50;64.10;;;;;;5034965;28;20053;-43
2021/07/01 11:57:28;;;;;;;8.10;2.85;;;20.70;64.30;;;;;;5034363;28;20488;-43
2021/07/01 11:59:53;;;;;;;3.85;2.40;;;20.70;64.30;;;;;;5035131;28;20108;-42
2021/07/01 12:02:20;;;;;;;4.15;2.25;;;20.70;64.30;;;;;;5035147;28;20206;-43
2021/07/01 12:04:47;;;;;;;3.30;2.35;;;20.90;64.50;;;;;;5034333;28;20121;-43
2021/07/01 12:07:26;;;;;;;3.25;2.47;;;20.70;64.30;;;;;;5033883;28;20025;-43
2021/07/01 12:09:53;;;;;;;5.63;2.58;;;20.70;64.30;;;;;;5034937;28;20029;-43
2021/07/01 12:12:28;;;;;;;5.05;2.65;;;20.70;64.30;;;;;;5034801;28;20104;-43
2021/07/01 12:15:14;;;;;;;3.60;2.47;;;21.00;64.40;;;;;;5034800;28;20033;-42
2021/07/01 12:18:02;;;;;;;4.90;2.25;;;20.60;64.20;;;;;;5034050;28;20496;-42
2021/07/01 12:20:38;;;;;;;5.72;2.65;;;20.60;64.20;;;;;;5033876;28;20030;-42
2021/07/01 12:23:25;;;;;;;5.50;3.00;;;20.70;64.30;;;;;;5034710;28;20029;-42
2021/07/01 12:25:59;;;;;;;3.95;2.58;;;20.40;64.20;;;;;;5034521;28;20480;-42
2021/07/01 12:28:29;;;;;;;5.55;2.70;;;20.70;64.30;;;;;;5034424;28;20028;-42
2021/07/01 12:31:08;;;;;;;5.90;2.80;;;20.70;64.30;;;;;;5034623;28;20419;-42
2021/07/01 12:33:58;;;;;;;5.78;2.58;;;20.60;64.30;;;;;;5034504;28;20017;-43
2021/07/01 12:36:41;;;;;;;6.35;2.67;;;20.70;64.40;;;;;;5034185;28;20030;-44
2021/07/01 12:41:37;;;;;;;5.70;2.92;;;20.70;64.40;;;;;;5034347;28;20108;-42
2021/07/01 12:44:17;;;;;;;4.93;3.08;;;20.70;64.40;;;;;;5034119;28;20071;-42
2021/07/01 12:49:15;;;;;;;5.72;2.70;;;20.70;64.30;;;;;;5034226;28;20033;-43
2021/07/01 12:51:55;;;;;;;4.15;2.55;;;20.60;64.20;;;;;;5034104;28;20035;-42
2021/07/01 12:54:23;;;;;;;7.53;3.40;;;20.70;64.20;;;;;;5034162;28;20119;-43
2021/07/01 12:57:05;;;;;;;4.70;2.78;;;20.70;64.30;;;;;;5033696;28;20033;-42
2021/07/01 12:59:36;;;;;;;7.80;3.53;;;20.70;64.20;;;;;;5034067;28;20021;-42